Terminal Aerodrome Forecast
Issued by NWS

Home | Current Version | Previous Version | Graphics & Text | Print | Product List | Glossary On
Versions: 1 2 3 4 5 6 7 8 9 10 11 12 13 14 15 16 17 18 19 20 21 22
000
FTUS43 KMPX 230725 AAA
TAFRWF
TAF AMD
KRWF 230725Z 2307/2406 09006KT P6SM BKN050
     FM230900 13005KT P6SM VCTS SCT025 BKN050CB
      TEMPO 2310/2312 3SM SHRA BKN025
     FM231400 15013G20KT P6SM BKN050
     FM232000 16013G20KT P6SM SCT100=

USA.gov is the U.S. government's official web portal to all federal, state and local government web resources and services.